Terminal Aerodrome Forecast
Issued by NWS

Home | Current Version | Previous Version | Text Only | Print | Product List | Glossary On
Versions: 1 2 3 4 5 6 7 8 9 10 11 12 13 14 15
233
FTUS44 KTSA 250520
TAFFYV
TAF
KFYV 250520Z 2506/2606 17005KT P6SM BKN100
      TEMPO 2507/2510 3SM TSRA BR BKN015CB
     FM251200 23005KT 3SM BR OVC025
     FM251600 27008KT P6SM OVC015=

USA.gov is the U.S. government's official web portal to all federal, state and local government web resources and services.